createdAt,value
2016-11-06T00:00:09.946Z,0
2016-11-06T00:01:09.856Z,0
2016-11-06T00:02:09.828Z,0
2016-11-06T00:03:09.794Z,0
2016-11-06T00:04:09.507Z,0
2016-11-06T00:05:09.600Z,0
2016-11-06T00:06:08.931Z,0
2016-11-06T00:07:09.859Z,0
2016-11-06T00:08:09.598Z,0
2016-11-06T00:09:09.913Z,0
2016-11-06T00:10:09.964Z,0
2016-11-06T00:11:09.991Z,0
2016-11-06T00:12:09.987Z,0
2016-11-06T00:13:09.988Z,0
2016-11-06T00:14:10.095Z,0
2016-11-06T00:15:09.695Z,0
2016-11-06T00:16:10.012Z,0
2016-11-06T00:17:09.383Z,0
2016-11-06T00:18:10.024Z,0
2016-11-06T00:19:10.055Z,0
2016-11-06T00:20:10.080Z,0
2016-11-06T00:21:09.875Z,0
2016-11-06T00:22:10.141Z,0
2016-11-06T00:23:10.117Z,0
2016-11-06T00:24:10.136Z,0
2016-11-06T00:25:09.845Z,0
2016-11-06T00:26:10.154Z,0
2016-11-06T00:27:10.249Z,0
2016-11-06T00:28:09.596Z,0
2016-11-06T00:29:09.910Z,0
2016-11-06T00:30:10.249Z,0
2016-11-06T00:31:10.217Z,0
2016-11-06T00:32:10.322Z,0
2016-11-06T00:33:10.252Z,0
2016-11-06T00:34:10.334Z,0
2016-11-06T00:35:10.334Z,0
2016-11-06T00:36:10.313Z,0
2016-11-06T00:37:10.323Z,0
2016-11-06T00:38:10.372Z,0
2016-11-06T00:39:10.394Z,0
2016-11-06T00:40:10.186Z,0
2016-11-06T00:41:10.503Z,0
2016-11-06T00:42:10.124Z,0
2016-11-06T00:43:10.491Z,0
2016-11-06T00:44:10.470Z,0
2016-11-06T00:45:10.578Z,0
2016-11-06T00:46:10.158Z,0
2016-11-06T00:47:10.484Z,0
2016-11-06T00:48:10.526Z,0
2016-11-06T00:49:10.314Z,0
2016-11-06T00:50:10.562Z,0
2016-11-06T00:51:09.960Z,0
2016-11-06T00:52:10.563Z,0
2016-11-06T00:53:10.581Z,0
2016-11-06T00:54:10.376Z,0
2016-11-06T00:55:10.614Z,0
2016-11-06T00:56:10.398Z,0
2016-11-06T00:57:10.118Z,0
2016-11-06T00:58:10.052Z,0
2016-11-06T00:59:10.678Z,0
2016-11-06T01:00:10.461Z,0
2016-11-06T01:01:10.706Z,0
2016-11-06T01:02:10.772Z,0
2016-11-06T01:03:10.747Z,0
2016-11-06T01:04:10.463Z,0
2016-11-06T01:05:10.770Z,0
2016-11-06T01:06:10.780Z,0
2016-11-06T01:07:10.863Z,0
2016-11-06T01:08:10.947Z,0
2016-11-06T01:09:10.891Z,0
2016-11-06T01:10:10.896Z,0
2016-11-06T01:11:10.964Z,0
2016-11-06T01:12:10.597Z,0
2016-11-06T01:13:10.657Z,0
2016-11-06T01:14:10.926Z,0
2016-11-06T01:15:10.998Z,0
2016-11-06T01:16:10.634Z,0
2016-11-06T01:17:10.984Z,0
2016-11-06T01:18:10.971Z,0
2016-11-06T01:19:10.687Z,0
2016-11-06T01:20:10.697Z,0
2016-11-06T01:21:10.711Z,0
2016-11-06T01:22:11.096Z,0
2016-11-06T01:23:10.747Z,0
2016-11-06T01:24:11.065Z,0
2016-11-06T01:25:10.825Z,0
2016-11-06T01:26:10.798Z,0
2016-11-06T01:27:10.497Z,0
2016-11-06T01:28:11.132Z,0
2016-11-06T01:29:11.153Z,0
2016-11-06T01:30:11.160Z,0
2016-11-06T01:31:11.175Z,0
2016-11-06T01:32:11.190Z,0
2016-11-06T01:33:10.595Z,0
2016-11-06T01:34:11.219Z,0
2016-11-06T01:35:10.933Z,0
2016-11-06T01:36:11.303Z,0
2016-11-06T01:37:10.956Z,0
2016-11-06T01:38:11.037Z,0
2016-11-06T01:39:11.327Z,0
2016-11-06T01:40:11.326Z,0
2016-11-06T01:41:11.036Z,0
2016-11-06T01:42:11.348Z,0
2016-11-06T01:43:11.088Z,0
2016-11-06T01:44:11.100Z,0
2016-11-06T01:45:11.095Z,0
2016-11-06T01:46:11.414Z,0
2016-11-06T01:47:11.153Z,0
2016-11-06T01:48:11.446Z,0
2016-11-06T01:49:11.500Z,0
2016-11-06T01:50:11.488Z,0
2016-11-06T01:51:11.501Z,0
2016-11-06T01:52:11.529Z,0
2016-11-06T01:53:11.227Z,0
2016-11-06T01:54:11.235Z,0
2016-11-06T01:55:11.552Z,0
2016-11-06T01:56:11.553Z,0
2016-11-06T01:57:11.277Z,0
2016-11-06T01:58:11.597Z,0
2016-11-06T01:59:11.307Z,0
2016-11-06T02:00:11.639Z,0
2016-11-06T02:01:11.659Z,0
2016-11-06T02:02:11.378Z,0
2016-11-06T02:03:11.365Z,0
2016-11-06T02:04:11.827Z,0
2016-11-06T02:05:11.705Z,0
2016-11-06T02:06:11.419Z,0
2016-11-06T02:07:11.433Z,0
2016-11-06T02:08:11.884Z,0
2016-11-06T02:09:11.775Z,0
2016-11-06T02:10:11.494Z,0
2016-11-06T02:11:11.836Z,0
2016-11-06T02:12:11.506Z,0
2016-11-06T02:13:11.556Z,0
2016-11-06T02:14:11.866Z,0
2016-11-06T02:15:11.867Z,0
2016-11-06T02:16:11.567Z,0
2016-11-06T02:17:11.604Z,0
2016-11-06T02:18:11.307Z,0
2016-11-06T02:19:11.921Z,0
2016-11-06T02:20:11.610Z,0
2016-11-06T02:21:11.651Z,0
2016-11-06T02:22:11.989Z,0
2016-11-06T02:23:11.987Z,0
2016-11-06T02:24:12.072Z,0
2016-11-06T02:25:11.739Z,0
2016-11-06T02:26:12.037Z,0
2016-11-06T02:27:12.045Z,0
2016-11-06T02:28:11.844Z,0
2016-11-06T02:29:12.096Z,0
2016-11-06T02:30:11.470Z,0
2016-11-06T02:31:11.828Z,0
2016-11-06T02:32:11.508Z,0
2016-11-06T02:33:11.528Z,0
2016-11-06T02:34:12.278Z,0
2016-11-06T02:35:12.205Z,0
2016-11-06T02:36:12.243Z,0
2016-11-06T02:37:11.910Z,0
2016-11-06T02:38:12.243Z,0
2016-11-06T02:39:12.279Z,0
2016-11-06T02:40:12.258Z,0
2016-11-06T02:41:12.271Z,0
2016-11-06T02:42:11.967Z,0
2016-11-06T02:43:12.313Z,0
2016-11-06T02:44:12.305Z,0
2016-11-06T02:45:11.708Z,0
2016-11-06T02:46:12.347Z,0
2016-11-06T02:47:12.147Z,0
2016-11-06T02:48:12.491Z,0
2016-11-06T02:49:12.465Z,0
2016-11-06T02:50:12.103Z,0
2016-11-06T02:51:12.110Z,0
2016-11-06T02:52:12.135Z,0
2016-11-06T02:53:12.459Z,0
2016-11-06T02:54:11.901Z,0
2016-11-06T02:55:12.476Z,0
2016-11-06T02:56:12.484Z,0
2016-11-06T02:57:12.506Z,0
2016-11-06T02:58:12.523Z,0
2016-11-06T02:59:12.279Z,0
2016-11-06T03:00:12.673Z,0
2016-11-06T03:01:11.952Z,0
2016-11-06T03:02:12.272Z,0
2016-11-06T03:03:12.695Z,0
2016-11-06T03:04:12.695Z,0
2016-11-06T03:05:12.661Z,0
2016-11-06T03:06:12.642Z,0
2016-11-06T03:07:12.351Z,0
2016-11-06T03:08:12.351Z,0
2016-11-06T03:09:12.383Z,0
2016-11-06T03:10:12.689Z,0
2016-11-06T03:11:12.713Z,0
2016-11-06T03:12:12.728Z,0
2016-11-06T03:13:12.538Z,0
2016-11-06T03:14:12.242Z,0
2016-11-06T03:15:12.579Z,0
2016-11-06T03:16:12.797Z,0
2016-11-06T03:17:12.854Z,0
2016-11-06T03:18:12.536Z,0
2016-11-06T03:19:12.844Z,0
2016-11-06T03:20:12.574Z,0
2016-11-06T03:21:12.541Z,0
2016-11-06T03:22:12.943Z,0
2016-11-06T03:23:12.568Z,0
2016-11-06T03:24:12.931Z,0
2016-11-06T03:25:12.612Z,0
2016-11-06T03:26:12.922Z,0
2016-11-06T03:27:12.984Z,0
2016-11-06T03:28:12.705Z,0
2016-11-06T03:29:12.985Z,0
2016-11-06T03:30:12.846Z,0
2016-11-06T03:31:12.696Z,0
2016-11-06T03:32:13.044Z,0
2016-11-06T03:33:12.720Z,0
2016-11-06T03:34:12.746Z,0
2016-11-06T03:35:13.064Z,0
2016-11-06T03:36:13.096Z,0
2016-11-06T03:37:13.116Z,0
2016-11-06T03:38:13.119Z,0
2016-11-06T03:39:12.962Z,0
2016-11-06T03:40:13.141Z,0
2016-11-06T03:41:12.596Z,0
2016-11-06T03:42:12.865Z,0
2016-11-06T03:43:13.187Z,0
2016-11-06T03:44:12.887Z,0
2016-11-06T03:45:13.007Z,0
2016-11-06T03:46:13.334Z,0
2016-11-06T03:47:13.257Z,0
2016-11-06T03:48:13.281Z,0
2016-11-06T03:49:13.313Z,0
2016-11-06T03:50:13.285Z,0
2016-11-06T03:51:13.376Z,0
2016-11-06T03:52:13.019Z,0
2016-11-06T03:53:13.336Z,0
2016-11-06T03:54:13.356Z,0
2016-11-06T03:55:13.106Z,0
2016-11-06T03:56:13.365Z,0
2016-11-06T03:57:13.090Z,0
2016-11-06T03:58:13.420Z,0
2016-11-06T03:59:13.406Z,0
2016-11-06T04:00:13.468Z,0
2016-11-06T04:01:13.452Z,0
2016-11-06T04:02:12.895Z,0
2016-11-06T04:03:13.180Z,0
2016-11-06T04:04:13.488Z,0
2016-11-06T04:05:13.212Z,0
2016-11-06T04:06:13.571Z,0
2016-11-06T04:07:13.220Z,0
2016-11-06T04:08:13.224Z,0
2016-11-06T04:09:13.265Z,0
2016-11-06T04:10:13.585Z,0
2016-11-06T04:11:13.388Z,0
2016-11-06T04:12:13.611Z,0
2016-11-06T04:13:13.302Z,0
2016-11-06T04:14:13.667Z,0
2016-11-06T04:15:13.344Z,0
2016-11-06T04:16:13.729Z,0
2016-11-06T04:17:13.690Z,0
2016-11-06T04:18:13.388Z,0
2016-11-06T04:19:13.714Z,0
2016-11-06T04:20:13.426Z,0
2016-11-06T04:21:13.440Z,0
2016-11-06T04:22:13.448Z,0
2016-11-06T04:23:13.458Z,0
2016-11-06T04:24:13.168Z,0
2016-11-06T04:25:13.794Z,0
2016-11-06T04:26:13.792Z,0
2016-11-06T04:27:13.954Z,0
2016-11-06T04:28:13.930Z,0
2016-11-06T04:29:13.548Z,0
2016-11-06T04:30:13.974Z,0
2016-11-06T04:31:13.909Z,0
2016-11-06T04:32:13.915Z,0
2016-11-06T04:33:13.619Z,0
2016-11-06T04:34:14.001Z,0
2016-11-06T04:35:13.635Z,0
2016-11-06T04:36:13.717Z,0
2016-11-06T04:37:13.985Z,0
2016-11-06T04:38:14.027Z,0
2016-11-06T04:39:13.710Z,0
2016-11-06T04:40:13.709Z,0
2016-11-06T04:41:14.049Z,0
2016-11-06T04:42:13.803Z,0
2016-11-06T04:43:13.817Z,0
2016-11-06T04:44:14.144Z,0
2016-11-06T04:45:14.143Z,0
2016-11-06T04:46:13.819Z,0
2016-11-06T04:47:14.179Z,0
2016-11-06T04:48:13.838Z,0
2016-11-06T04:49:13.544Z,0
2016-11-06T04:50:13.873Z,0
2016-11-06T04:51:14.190Z,0
2016-11-06T04:52:14.198Z,0
2016-11-06T04:53:13.929Z,0
2016-11-06T04:54:13.926Z,0
2016-11-06T04:55:14.238Z,0
2016-11-06T04:56:14.395Z,0
2016-11-06T04:57:14.079Z,0
2016-11-06T04:58:14.350Z,0
2016-11-06T04:59:14.382Z,0
2016-11-06T05:00:13.711Z,0
2016-11-06T05:01:14.038Z,0
2016-11-06T05:02:14.357Z,0
2016-11-06T05:03:14.426Z,0
2016-11-06T05:04:14.405Z,0
2016-11-06T05:05:14.097Z,0
2016-11-06T05:06:13.808Z,0
2016-11-06T05:07:14.443Z,0
2016-11-06T05:08:14.443Z,0
2016-11-06T05:09:14.209Z,0
2016-11-06T05:10:14.550Z,0
2016-11-06T05:11:14.237Z,0
2016-11-06T05:12:13.900Z,0
2016-11-06T05:13:14.251Z,0
2016-11-06T05:14:14.233Z,0
2016-11-06T05:15:14.267Z,0
2016-11-06T05:16:14.623Z,0
2016-11-06T05:17:14.627Z,0
2016-11-06T05:18:14.062Z,0
2016-11-06T05:19:14.426Z,0
2016-11-06T05:20:14.638Z,0
2016-11-06T05:21:14.438Z,0
2016-11-06T05:22:14.208Z,0
2016-11-06T05:23:14.418Z,0
2016-11-06T05:24:14.457Z,0
2016-11-06T05:25:14.095Z,0
2016-11-06T05:26:14.814Z,0
2016-11-06T05:27:14.829Z,0
2016-11-06T05:28:14.247Z,0
2016-11-06T05:29:14.958Z,0
2016-11-06T05:30:14.846Z,0
2016-11-06T05:31:14.200Z,0
2016-11-06T05:32:14.830Z,0
2016-11-06T05:33:14.532Z,0
2016-11-06T05:34:14.607Z,0
2016-11-06T05:35:14.882Z,0
2016-11-06T05:36:14.911Z,0
2016-11-06T05:37:14.914Z,0
2016-11-06T05:38:14.937Z,0
2016-11-06T05:39:14.745Z,0
2016-11-06T05:40:14.981Z,0
2016-11-06T05:41:14.713Z,0
2016-11-06T05:42:15.034Z,0
2016-11-06T05:43:15.242Z,0
2016-11-06T05:44:14.728Z,0
2016-11-06T05:45:14.410Z,0
2016-11-06T05:46:15.190Z,0
2016-11-06T05:47:14.762Z,0
2016-11-06T05:48:15.132Z,0
2016-11-06T05:49:15.106Z,0
2016-11-06T05:50:14.889Z,0
2016-11-06T05:51:15.128Z,0
2016-11-06T05:52:14.932Z,0
2016-11-06T05:53:14.856Z,0
2016-11-06T05:54:14.956Z,0
2016-11-06T05:55:14.900Z,0
2016-11-06T05:56:14.917Z,0
2016-11-06T05:57:15.235Z,0
2016-11-06T05:58:14.949Z,0
2016-11-06T05:59:15.524Z,0
2016-11-06T06:00:14.701Z,0
2016-11-06T06:01:14.978Z,0
2016-11-06T06:02:15.316Z,0
2016-11-06T06:03:15.579Z,0
2016-11-06T06:04:15.039Z,4
2016-11-06T06:05:15.565Z,4
2016-11-06T06:06:15.574Z,4
2016-11-06T06:07:15.198Z,0
2016-11-06T06:08:15.600Z,4
2016-11-06T06:09:15.568Z,4
2016-11-06T06:10:15.567Z,4
2016-11-06T06:11:15.202Z,4
2016-11-06T06:12:15.270Z,4
2016-11-06T06:13:15.276Z,8
2016-11-06T06:14:15.596Z,8
2016-11-06T06:15:15.320Z,8
2016-11-06T06:16:15.587Z,8
2016-11-06T06:17:14.925Z,12
2016-11-06T06:18:15.691Z,12
2016-11-06T06:19:15.367Z,16
2016-11-06T06:20:15.633Z,20
2016-11-06T06:21:15.308Z,24
2016-11-06T06:22:15.640Z,24
2016-11-06T06:23:15.655Z,32
2016-11-06T06:24:15.655Z,44
2016-11-06T06:25:15.367Z,48
2016-11-06T06:26:15.708Z,52
2016-11-06T06:27:15.731Z,60
2016-11-06T06:28:15.730Z,64
2016-11-06T06:29:15.746Z,76
2016-11-06T06:30:15.446Z,80
2016-11-06T06:31:15.348Z,84
2016-11-06T06:32:15.770Z,92
2016-11-06T06:33:15.921Z,100
2016-11-06T06:34:15.505Z,108
2016-11-06T06:35:15.845Z,108
2016-11-06T06:36:15.381Z,120
2016-11-06T06:37:15.921Z,128
2016-11-06T06:38:15.991Z,132
2016-11-06T06:39:15.831Z,136
2016-11-06T06:40:15.970Z,132
2016-11-06T06:41:15.961Z,136
2016-11-06T06:42:15.947Z,140
2016-11-06T06:43:15.976Z,140
2016-11-06T06:44:15.728Z,148
2016-11-06T06:45:15.453Z,156
2016-11-06T06:46:16.058Z,160
2016-11-06T06:47:16.097Z,172
2016-11-06T06:48:16.174Z,164
2016-11-06T06:49:15.777Z,180
2016-11-06T06:50:15.799Z,204
2016-11-06T06:51:15.830Z,216
2016-11-06T06:52:15.817Z,228
2016-11-06T06:53:16.137Z,236
2016-11-06T06:54:15.834Z,236
2016-11-06T06:55:16.218Z,264
2016-11-06T06:56:16.188Z,272
2016-11-06T06:57:16.187Z,300
2016-11-06T06:58:15.909Z,312
2016-11-06T06:59:16.226Z,304
2016-11-06T07:00:15.782Z,312
2016-11-06T07:01:15.967Z,336
2016-11-06T07:02:16.075Z,324
2016-11-06T07:03:16.392Z,308
2016-11-06T07:04:16.013Z,332
2016-11-06T07:05:16.036Z,364
2016-11-06T07:06:16.358Z,400
2016-11-06T07:07:16.399Z,420
2016-11-06T07:08:16.371Z,436
2016-11-06T07:09:16.401Z,404
2016-11-06T07:10:16.192Z,364
2016-11-06T07:11:16.186Z,348
2016-11-06T07:12:16.442Z,372
2016-11-06T07:13:16.483Z,396
2016-11-06T07:14:16.223Z,380
2016-11-06T07:15:16.505Z,420
2016-11-06T07:16:16.231Z,436
2016-11-06T07:17:16.539Z,436
2016-11-06T07:18:16.553Z,520
2016-11-06T07:19:16.566Z,548
2016-11-06T07:20:16.611Z,536
2016-11-06T07:21:16.625Z,504
2016-11-06T07:22:16.306Z,532
2016-11-06T07:23:16.303Z,596
2016-11-06T07:24:16.641Z,588
2016-11-06T07:25:16.656Z,540
2016-11-06T07:26:16.445Z,496
2016-11-06T07:27:16.705Z,528
2016-11-06T07:28:16.719Z,580
2016-11-06T07:29:16.803Z,704
2016-11-06T07:30:16.476Z,896
2016-11-06T07:31:16.512Z,856
2016-11-06T07:32:16.813Z,832
2016-11-06T07:33:16.603Z,880
2016-11-06T07:34:16.627Z,1108
2016-11-06T07:35:16.506Z,976
2016-11-06T07:36:16.525Z,1132
2016-11-06T07:37:16.542Z,1184
2016-11-06T07:38:16.262Z,1240
2016-11-06T07:39:16.917Z,1268
2016-11-06T07:40:16.926Z,1448
2016-11-06T07:41:16.936Z,1404
2016-11-06T07:42:17.009Z,1240
2016-11-06T07:43:16.982Z,1284
2016-11-06T07:44:16.995Z,1408
2016-11-06T07:45:17.043Z,1420
2016-11-06T07:46:17.043Z,1716
2016-11-06T07:47:16.716Z,2124
2016-11-06T07:48:16.733Z,2540
2016-11-06T07:49:16.765Z,2276
2016-11-06T07:50:16.758Z,1656
2016-11-06T07:51:16.520Z,1284
2016-11-06T07:52:16.486Z,1164
2016-11-06T07:53:16.811Z,1180
2016-11-06T07:54:17.131Z,1084
2016-11-06T07:55:17.142Z,900
2016-11-06T07:56:16.861Z,880
2016-11-06T07:57:16.994Z,924
2016-11-06T07:58:17.199Z,944
2016-11-06T07:59:16.613Z,912
2016-11-06T08:00:17.221Z,924
2016-11-06T08:01:16.931Z,984
2016-11-06T08:02:17.272Z,952
2016-11-06T08:03:17.005Z,928
2016-11-06T08:04:17.014Z,936
2016-11-06T08:05:17.373Z,984
2016-11-06T08:06:17.346Z,1044
2016-11-06T08:07:17.364Z,1124
2016-11-06T08:08:17.379Z,1152
2016-11-06T08:09:17.380Z,1120
2016-11-06T08:10:17.238Z,1100
2016-11-06T08:11:17.112Z,1076
2016-11-06T08:12:17.221Z,1080
2016-11-06T08:13:17.146Z,1068
2016-11-06T08:14:17.482Z,1076
2016-11-06T08:15:17.165Z,1072
2016-11-06T08:16:17.511Z,1168
2016-11-06T08:17:16.592Z,1368
2016-11-06T08:18:17.560Z,1584
2016-11-06T08:19:17.246Z,1608
2016-11-06T08:20:16.957Z,1548
2016-11-06T08:21:17.584Z,1452
2016-11-06T08:22:17.282Z,1480
2016-11-06T08:23:17.344Z,1560
2016-11-06T08:24:17.657Z,1692
2016-11-06T08:25:17.328Z,1688
2016-11-06T08:26:17.682Z,1724
2016-11-06T08:27:17.731Z,1612
2016-11-06T08:28:17.727Z,1444
2016-11-06T08:29:17.114Z,1416
2016-11-06T08:30:17.763Z,1444
2016-11-06T08:31:17.454Z,1516
2016-11-06T08:32:17.775Z,1424
2016-11-06T08:33:17.848Z,1424
2016-11-06T08:34:17.805Z,1396
2016-11-06T08:35:17.837Z,1400
2016-11-06T08:36:17.955Z,1480
2016-11-06T08:37:17.261Z,1540
2016-11-06T08:38:17.573Z,1556
2016-11-06T08:39:17.597Z,1648
2016-11-06T08:40:17.703Z,1852
2016-11-06T08:41:17.916Z,2000
2016-11-06T08:42:17.330Z,2064
2016-11-06T08:43:17.979Z,2128
2016-11-06T08:44:17.967Z,2080
2016-11-06T08:45:18.025Z,2168
2016-11-06T08:46:17.754Z,2116
2016-11-06T08:47:18.034Z,2140
2016-11-06T08:48:18.058Z,2196
2016-11-06T08:49:18.083Z,2124
2016-11-06T08:50:18.107Z,2156
2016-11-06T08:51:18.115Z,2236
2016-11-06T08:52:18.211Z,2528
2016-11-06T08:53:18.208Z,2592
2016-11-06T08:54:18.159Z,2624
2016-11-06T08:55:17.847Z,2644
2016-11-06T08:56:17.884Z,2836
2016-11-06T08:57:18.201Z,2620
2016-11-06T08:58:18.234Z,2756
2016-11-06T08:59:17.924Z,2996
2016-11-06T09:00:17.956Z,3028
2016-11-06T09:01:18.268Z,2724
2016-11-06T09:02:18.286Z,2840
2016-11-06T09:03:17.996Z,3120
2016-11-06T09:04:18.061Z,3196
2016-11-06T09:05:18.094Z,3344
2016-11-06T09:06:18.052Z,3236
2016-11-06T09:07:17.758Z,3324
2016-11-06T09:08:18.400Z,3620
2016-11-06T09:09:18.096Z,3384
2016-11-06T09:10:18.436Z,2900
2016-11-06T09:11:18.486Z,2716
2016-11-06T09:12:18.281Z,2972
2016-11-06T09:13:18.171Z,2812
2016-11-06T09:14:18.518Z,2940
2016-11-06T09:15:18.250Z,2868
2016-11-06T09:16:18.563Z,2836
2016-11-06T09:17:18.633Z,2972
2016-11-06T09:18:18.257Z,2800
2016-11-06T09:19:18.672Z,2836
2016-11-06T09:20:18.596Z,2968
2016-11-06T09:21:18.735Z,3244
2016-11-06T09:22:18.691Z,3392
2016-11-06T09:23:18.664Z,3724
2016-11-06T09:24:18.668Z,3640
2016-11-06T09:25:18.490Z,4036
2016-11-06T09:26:18.699Z,3908
2016-11-06T09:27:18.735Z,3704
2016-11-06T09:28:18.736Z,3632
2016-11-06T09:29:18.805Z,3540
2016-11-06T09:30:18.467Z,3200
2016-11-06T09:31:18.597Z,3160
2016-11-06T09:32:18.627Z,3156
2016-11-06T09:33:18.869Z,3120
2016-11-06T09:34:18.848Z,3260
2016-11-06T09:35:18.909Z,3624
2016-11-06T09:36:18.990Z,4016
2016-11-06T09:37:18.650Z,3520
2016-11-06T09:38:18.918Z,3356
2016-11-06T09:39:19.272Z,3292
2016-11-06T09:40:18.861Z,3216
2016-11-06T09:41:19.278Z,3312
2016-11-06T09:42:19.182Z,3796
2016-11-06T09:43:19.354Z,4708
2016-11-06T09:44:18.866Z,5284
2016-11-06T09:45:19.365Z,5724
2016-11-06T09:46:18.842Z,5872
2016-11-06T09:47:19.379Z,5540
2016-11-06T09:48:18.962Z,5788
2016-11-06T09:49:19.102Z,6016
2016-11-06T09:50:18.874Z,6516
2016-11-06T09:51:19.432Z,6636
2016-11-06T09:52:18.967Z,6604
2016-11-06T09:53:19.365Z,6400
2016-11-06T09:54:19.224Z,6376
2016-11-06T09:55:18.999Z,7024
2016-11-06T09:56:18.325Z,7024
2016-11-06T09:57:19.864Z,7168
2016-11-06T09:58:19.020Z,6852
2016-11-06T09:59:19.296Z,5928
2016-11-06T10:00:19.111Z,6496
2016-11-06T10:01:19.016Z,7192
2016-11-06T10:02:19.138Z,7648
2016-11-06T10:03:19.066Z,7372
2016-11-06T10:04:19.526Z,6736
2016-11-06T10:05:19.406Z,6572
2016-11-06T10:06:19.210Z,7864
2016-11-06T10:07:19.136Z,7692
2016-11-06T10:08:19.482Z,7008
2016-11-06T10:09:19.178Z,6560
2016-11-06T10:10:19.626Z,5840
2016-11-06T10:11:19.249Z,5996
2016-11-06T10:12:19.624Z,6124
2016-11-06T10:13:19.325Z,7128
2016-11-06T10:14:19.689Z,8024
2016-11-06T10:15:19.587Z,7916
2016-11-06T10:16:18.971Z,8448
2016-11-06T10:17:19.618Z,6904
2016-11-06T10:18:19.316Z,4944
2016-11-06T10:19:19.349Z,5704
2016-11-06T10:20:19.444Z,6900
2016-11-06T10:21:19.709Z,7044
2016-11-06T10:22:19.856Z,6296
2016-11-06T10:23:19.427Z,6876
2016-11-06T10:24:19.782Z,6948
2016-11-06T10:25:19.876Z,8676
2016-11-06T10:26:19.782Z,9836
2016-11-06T10:27:19.865Z,9048
2016-11-06T10:28:19.823Z,9032
2016-11-06T10:29:19.838Z,8324
2016-11-06T10:30:19.853Z,7996
2016-11-06T10:31:19.868Z,9064
2016-11-06T10:32:19.579Z,9028
2016-11-06T10:33:19.290Z,8416
2016-11-06T10:34:19.658Z,8796
2016-11-06T10:35:19.701Z,8276
2016-11-06T10:36:20.001Z,8368
2016-11-06T10:37:19.379Z,8088
2016-11-06T10:38:20.001Z,7576
2016-11-06T10:39:19.405Z,6240
2016-11-06T10:40:20.163Z,6532
2016-11-06T10:41:20.059Z,5224
2016-11-06T10:42:20.098Z,5340
2016-11-06T10:43:19.499Z,5496
2016-11-06T10:44:19.848Z,4932
2016-11-06T10:45:19.907Z,5240
2016-11-06T10:46:20.160Z,5696
2016-11-06T10:47:20.181Z,6336
2016-11-06T10:48:20.328Z,7472
2016-11-06T10:49:19.611Z,8348
2016-11-06T10:50:20.246Z,8464
2016-11-06T10:51:19.950Z,9016
2016-11-06T10:52:20.290Z,9708
2016-11-06T10:53:20.321Z,10984
2016-11-06T10:54:20.104Z,12384
2016-11-06T10:55:20.050Z,13052
2016-11-06T10:56:20.351Z,13272
2016-11-06T10:57:20.165Z,13380
2016-11-06T10:58:20.176Z,13600
2016-11-06T10:59:20.449Z,14036
2016-11-06T11:00:20.198Z,13800
2016-11-06T11:01:20.456Z,12756
2016-11-06T11:02:20.449Z,13524
2016-11-06T11:03:20.599Z,12020
2016-11-06T11:04:20.177Z,11192
2016-11-06T11:05:20.205Z,10556
2016-11-06T11:06:20.565Z,10984
2016-11-06T11:07:20.641Z,11968
2016-11-06T11:08:20.602Z,11088
2016-11-06T11:09:20.350Z,10640
2016-11-06T11:10:20.647Z,10112
2016-11-06T11:11:20.668Z,10492
2016-11-06T11:12:20.681Z,11224
2016-11-06T11:13:20.420Z,11832
2016-11-06T11:14:20.751Z,12204
2016-11-06T11:15:20.518Z,13528
2016-11-06T11:16:20.841Z,12224
2016-11-06T11:17:20.811Z,12320
2016-11-06T11:18:20.901Z,10252
2016-11-06T11:19:20.861Z,9456
2016-11-06T11:20:20.832Z,8724
2016-11-06T11:21:20.546Z,7676
2016-11-06T11:22:20.871Z,7600
2016-11-06T11:23:20.608Z,7588
2016-11-06T11:24:20.399Z,8204
2016-11-06T11:25:20.944Z,8524
2016-11-06T11:26:20.685Z,8636
2016-11-06T11:27:20.975Z,8716
2016-11-06T11:28:21.086Z,8680
2016-11-06T11:29:21.078Z,8284
2016-11-06T11:30:21.194Z,7872
2016-11-06T11:31:20.757Z,7272
2016-11-06T11:32:20.756Z,6964
2016-11-06T11:33:20.520Z,6836
2016-11-06T11:34:21.145Z,6004
2016-11-06T11:35:20.828Z,6596
2016-11-06T11:36:21.159Z,6004
2016-11-06T11:37:21.169Z,5880
2016-11-06T11:38:21.198Z,6464
2016-11-06T11:39:20.910Z,7564
2016-11-06T11:40:20.995Z,8764
2016-11-06T11:41:20.969Z,8572
2016-11-06T11:42:21.289Z,7712
2016-11-06T11:43:21.303Z,9356
2016-11-06T11:44:21.377Z,8688
2016-11-06T11:45:21.362Z,8440
2016-11-06T11:46:21.380Z,8584
2016-11-06T11:47:21.389Z,8556
2016-11-06T11:48:21.099Z,8148
2016-11-06T11:49:21.131Z,9416
2016-11-06T11:50:21.437Z,8756
2016-11-06T11:51:21.182Z,8588
2016-11-06T11:52:21.519Z,8088
2016-11-06T11:53:21.606Z,6484
2016-11-06T11:54:21.597Z,5656
2016-11-06T11:55:21.671Z,4936
2016-11-06T11:56:21.284Z,4796
2016-11-06T11:57:21.621Z,4652
2016-11-06T11:58:21.626Z,4292
2016-11-06T11:59:21.348Z,4064
2016-11-06T12:00:21.039Z,3788
2016-11-06T12:01:21.663Z,3784
2016-11-06T12:02:21.055Z,3664
2016-11-06T12:03:21.721Z,3640
2016-11-06T12:04:21.727Z,3676
2016-11-06T12:05:21.806Z,3796
2016-11-06T12:06:21.748Z,3808
2016-11-06T12:07:21.780Z,3792
2016-11-06T12:08:21.833Z,3892
2016-11-06T12:09:21.512Z,3612
2016-11-06T12:10:21.855Z,3664
2016-11-06T12:11:21.903Z,3932
2016-11-06T12:12:21.899Z,3796
2016-11-06T12:13:21.598Z,3836
2016-11-06T12:14:21.925Z,3868
2016-11-06T12:15:21.958Z,4096
2016-11-06T12:16:22.093Z,4340
2016-11-06T12:17:21.982Z,4516
2016-11-06T12:18:22.178Z,4444
2016-11-06T12:19:22.119Z,4600
2016-11-06T12:20:22.099Z,4692
2016-11-06T12:21:21.747Z,4780
2016-11-06T12:22:21.790Z,4824
2016-11-06T12:23:21.772Z,4372
2016-11-06T12:24:21.528Z,3996
2016-11-06T12:25:21.554Z,3768
2016-11-06T12:26:22.159Z,4140
2016-11-06T12:27:22.177Z,4068
2016-11-06T12:28:22.205Z,3992
2016-11-06T12:29:22.204Z,3736
2016-11-06T12:30:22.313Z,3680
2016-11-06T12:31:21.929Z,3828
2016-11-06T12:32:22.296Z,3968
2016-11-06T12:33:21.992Z,4168
2016-11-06T12:34:22.319Z,4636
2016-11-06T12:35:22.323Z,4844
2016-11-06T12:36:22.240Z,4728
2016-11-06T12:37:22.356Z,4712
2016-11-06T12:38:22.371Z,4752
2016-11-06T12:39:22.398Z,4520
2016-11-06T12:40:22.415Z,4344
2016-11-06T12:41:22.749Z,4532
2016-11-06T12:42:21.526Z,4756
2016-11-06T12:43:22.496Z,4344
2016-11-06T12:44:22.486Z,4216
2016-11-06T12:45:22.761Z,4300
2016-11-06T12:46:22.794Z,4296
2016-11-06T12:47:22.816Z,4008
2016-11-06T12:48:22.847Z,3976
2016-11-06T12:49:22.814Z,3756
2016-11-06T12:50:22.820Z,3412
2016-11-06T12:51:22.322Z,3140
2016-11-06T12:52:22.390Z,3136
2016-11-06T12:53:22.351Z,3104
2016-11-06T12:54:22.839Z,2904
2016-11-06T12:55:22.818Z,2664
2016-11-06T12:56:22.825Z,2768
2016-11-06T12:57:22.859Z,2912
2016-11-06T12:58:22.432Z,2884
2016-11-06T12:59:22.828Z,3796
2016-11-06T13:00:22.855Z,4856
2016-11-06T13:01:22.836Z,5092
2016-11-06T13:02:22.642Z,4660
2016-11-06T13:03:22.238Z,4432
2016-11-06T13:04:22.568Z,4120
2016-11-06T13:05:22.883Z,4260
2016-11-06T13:06:22.960Z,3944
2016-11-06T13:07:22.963Z,3732
2016-11-06T13:08:23.057Z,3632
2016-11-06T13:09:23.007Z,3376
2016-11-06T13:10:22.891Z,3080
2016-11-06T13:11:22.898Z,2812
2016-11-06T13:12:23.191Z,2768
2016-11-06T13:13:23.064Z,2748
2016-11-06T13:14:22.515Z,2580
2016-11-06T13:15:23.093Z,2428
2016-11-06T13:16:23.087Z,2392
2016-11-06T13:17:23.254Z,2316
2016-11-06T13:18:22.679Z,2340
2016-11-06T13:19:22.925Z,2352
2016-11-06T13:20:23.222Z,2288
2016-11-06T13:21:22.571Z,2200
2016-11-06T13:22:23.226Z,1996
2016-11-06T13:23:22.725Z,1852
2016-11-06T13:24:23.105Z,1816
2016-11-06T13:25:23.352Z,1832
2016-11-06T13:26:23.013Z,1732
2016-11-06T13:27:23.296Z,1632
2016-11-06T13:28:23.007Z,1700
2016-11-06T13:29:23.059Z,1732
2016-11-06T13:30:23.365Z,1812
2016-11-06T13:31:23.081Z,1736
2016-11-06T13:32:23.105Z,1696
2016-11-06T13:33:23.587Z,1704
2016-11-06T13:34:23.497Z,1760
2016-11-06T13:35:23.483Z,1800
2016-11-06T13:36:23.482Z,1900
2016-11-06T13:37:23.307Z,1900
2016-11-06T13:38:23.519Z,1864
2016-11-06T13:39:23.573Z,1988
2016-11-06T13:40:23.243Z,2200
2016-11-06T13:41:23.589Z,2088
2016-11-06T13:42:23.274Z,1920
2016-11-06T13:43:23.634Z,1964
2016-11-06T13:44:23.711Z,1844
2016-11-06T13:45:23.639Z,1656
2016-11-06T13:46:23.402Z,1524
2016-11-06T13:47:23.751Z,1480
2016-11-06T13:48:23.083Z,1388
2016-11-06T13:49:23.789Z,1288
2016-11-06T13:50:23.778Z,1288
2016-11-06T13:51:23.742Z,1328
2016-11-06T13:52:23.818Z,1428
2016-11-06T13:53:23.797Z,1568
2016-11-06T13:54:23.605Z,1700
2016-11-06T13:55:23.615Z,1828
2016-11-06T13:56:23.519Z,1908
2016-11-06T13:57:23.856Z,1952
2016-11-06T13:58:23.873Z,1912